Time;durP1;ratioP1;P1;durP2;ratioP2;P2;SDS_P1;SDS_P2;PMS_P1;PMS_P2;Temp;Humidity;BMP_temperature;BMP_pressure;BME280_temperature;BME280_humidity;BME280_pressure;Samples;Min_cycle;Max_cycle;Signal;HPM_P1;HPM_P2
2022/04/09 00:00:52;;;;;;;5.95;3.08;;;;;;;15.04;82.09;98833.34;5095155;28;20093;-78
2022/04/09 00:03:18;;;;;;;5.18;2.55;;;;;;;15.00;82.35;98841.00;5097123;28;20026;-78
2022/04/09 00:05:43;;;;;;;2.92;1.90;;;;;;;14.94;82.83;98841.81;5094015;28;20040;-78
2022/04/09 00:08:09;;;;;;;4.43;2.20;;;;;;;14.94;83.41;98839.13;5091313;28;20051;-78
2022/04/09 00:10:34;;;;;;;2.47;1.95;;;;;;;14.81;84.03;98833.63;5095394;28;20028;-78
2022/04/09 00:13:00;;;;;;;4.35;2.28;;;;;;;14.79;84.92;98841.09;5081701;28;20016;-77
2022/04/09 00:15:25;;;;;;;3.40;1.75;;;;;;;14.74;86.23;98840.00;5099626;28;20020;-77
2022/04/09 00:17:51;;;;;;;2.55;1.38;;;;;;;14.64;86.71;98834.94;5099747;28;20090;-78
2022/04/09 00:20:18;;;;;;;3.53;1.70;;;;;;;14.49;87.36;98812.66;5096442;28;20017;-77
2022/04/09 00:22:44;;;;;;;4.20;1.67;;;;;;;14.55;88.53;98833.44;5080867;28;20399;-77
2022/04/09 00:25:14;;;;;;;5.43;1.80;;;;;;;14.50;90.06;98824.25;5098529;28;20107;-78
2022/04/09 00:27:41;;;;;;;1.38;1.27;;;;;;;14.43;90.04;98813.41;5098134;28;20027;-76
2022/04/09 00:30:08;;;;;;;3.38;1.60;;;;;;;14.35;90.28;98799.25;5102909;28;20035;-77
2022/04/09 00:32:34;;;;;;;3.70;1.50;;;;;;;14.32;90.96;98797.75;5096700;28;20024;-76
2022/04/09 00:35:00;;;;;;;2.80;1.75;;;;;;;14.18;91.28;98779.78;5099549;28;20381;-76
2022/04/09 00:37:25;;;;;;;3.25;1.60;;;;;;;14.15;92.37;98784.75;5100907;28;20032;-77
2022/04/09 00:39:51;;;;;;;2.30;1.60;;;;;;;14.10;93.93;98787.16;5078403;28;20024;-76
2022/04/09 00:42:18;;;;;;;4.35;1.70;;;;;;;14.08;94.48;98781.97;5095554;28;20062;-76
2022/04/09 00:44:44;;;;;;;2.65;1.63;;;;;;;14.00;94.37;98775.88;5099104;28;20024;-76
2022/04/09 00:47:11;;;;;;;3.75;1.42;;;;;;;13.95;95.35;98778.31;5100423;28;20031;-76
2022/04/09 00:49:37;;;;;;;3.85;1.70;;;;;;;13.89;96.19;98774.53;5098165;28;20051;-76
2022/04/09 00:52:05;;;;;;;3.25;1.50;;;;;;;13.84;96.94;98759.97;5098583;28;20730;-76
2022/04/09 00:54:32;;;;;;;3.55;1.70;;;;;;;13.78;98.17;98750.81;5098513;28;20048;-75
2022/04/09 00:57:06;;;;;;;2.00;1.80;;;;;;;13.67;99.03;98735.16;5098726;28;20020;-75
2022/04/09 00:59:35;;;;;;;3.65;1.63;;;;;;;13.68;99.30;98737.66;5096330;28;20039;-76
2022/04/09 01:02:01;;;;;;;3.25;1.58;;;;;;;13.65;100.00;98745.31;5098757;28;20024;-76
2022/04/09 01:04:27;;;;;;;3.30;1.50;;;;;;;13.53;100.00;98726.13;5101998;28;20039;-75
2022/04/09 01:06:53;;;;;;;4.78;1.85;;;;;;;13.53;100.00;98731.50;5097593;28;20020;-76
2022/04/09 01:09:18;;;;;;;2.33;1.70;;;;;;;13.56;100.00;98735.66;5099711;28;20509;-76
2022/04/09 01:11:44;;;;;;;2.60;1.67;;;;;;;13.54;100.00;98735.88;5094929;28;20028;-76
2022/04/09 01:14:11;;;;;;;2.92;1.60;;;;;;;13.49;100.00;98729.38;5095828;28;20051;-76
2022/04/09 01:16:37;;;;;;;5.03;1.90;;;;;;;13.49;100.00;98724.00;5095109;28;20024;-70
2022/04/09 01:19:03;;;;;;;3.70;2.00;;;;;;;13.46;100.00;98717.16;5083963;28;20016;-70
2022/04/09 01:21:29;;;;;;;4.18;2.15;;;;;;;13.44;100.00;98715.66;5099008;28;20161;-70
2022/04/09 01:23:55;;;;;;;2.85;2.22;;;;;;;13.44;100.00;98726.41;5098249;28;20089;-70
2022/04/09 01:26:21;;;;;;;4.88;2.05;;;;;;;13.33;100.00;98713.47;5097391;28;20027;-70
2022/04/09 01:28:48;;;;;;;6.22;1.88;;;;;;;13.37;100.00;98728.22;5097921;28;20387;-70
2022/04/09 01:31:15;;;;;;;3.67;2.03;;;;;;;13.24;100.00;98699.31;5073685;28;20507;-70
2022/04/09 01:33:40;;;;;;;3.85;1.80;;;;;;;13.32;100.00;98709.13;5096080;28;20128;-70
2022/04/09 01:36:06;;;;;;;3.92;1.85;;;;;;;13.37;100.00;98733.59;5096777;28;20042;-70
2022/04/09 01:38:34;;;;;;;4.50;2.10;;;;;;;13.33;100.00;98730.47;5097559;28;20124;-70
2022/04/09 01:41:00;;;;;;;4.53;1.95;;;;;;;13.26;100.00;98732.22;5095147;28;20498;-70
2022/04/09 01:43:25;;;;;;;3.97;1.77;;;;;;;13.31;100.00;98739.75;5098347;28;20028;-70
2022/04/09 01:45:51;;;;;;;4.18;1.83;;;;;;;13.22;100.00;98730.16;5086074;28;20019;-70
2022/04/09 01:48:16;;;;;;;3.35;2.38;;;;;;;13.26;100.00;98734.13;5083748;28;20028;-70
2022/04/09 01:50:42;;;;;;;5.68;1.80;;;;;;;13.26;100.00;98732.22;5079206;28;20032;-70
2022/04/09 01:53:07;;;;;;;5.32;2.42;;;;;;;13.23;100.00;98724.53;5096100;28;20050;-70
2022/04/09 01:55:33;;;;;;;3.97;2.10;;;;;;;13.30;100.00;98732.69;5095954;28;20089;-70
2022/04/09 01:57:58;;;;;;;4.57;1.75;;;;;;;13.28;100.00;98727.50;5093384;28;20110;-70
2022/04/09 02:00:24;;;;;;;3.78;2.05;;;;;;;13.21;100.00;98721.22;5077450;28;20212;-69
2022/04/09 02:02:51;;;;;;;2.83;1.50;;;;;;;13.26;100.00;98734.13;5082277;28;20126;-70
2022/04/09 02:05:16;;;;;;;4.65;1.92;;;;;;;13.25;100.00;98725.19;5079828;28;20027;-70
2022/04/09 02:07:43;;;;;;;3.70;1.60;;;;;;;13.21;100.00;98720.38;5098037;28;20385;-70
2022/04/09 02:10:10;;;;;;;4.00;2.00;;;;;;;13.23;100.00;98729.09;5088763;28;20445;-70
2022/04/09 02:12:36;;;;;;;4.80;1.67;;;;;;;13.22;100.00;98732.84;5079687;28;20024;-70
2022/04/09 02:15:10;;;;;;;3.60;1.63;;;;;;;13.19;100.00;98727.81;5087710;28;20612;-70
2022/04/09 02:17:38;;;;;;;3.85;1.88;;;;;;;13.20;100.00;98724.09;5095938;28;20373;-70
2022/04/09 02:20:05;;;;;;;3.53;1.52;;;;;;;13.10;100.00;98720.88;5097288;28;20495;-70
2022/04/09 02:22:39;;;;;;;6.32;1.48;;;;;;;13.14;100.00;98738.31;5096006;28;20192;-70
2022/04/09 02:25:06;;;;;;;3.83;1.60;;;;;;;13.18;100.00;98731.53;5099226;28;20476;-70
2022/04/09 02:27:31;;;;;;;4.45;1.60;;;;;;;13.09;100.00;98722.72;5099088;28;20067;-70
2022/04/09 02:29:57;;;;;;;3.78;1.98;;;;;;;13.16;100.00;98739.78;5093885;28;20067;-70
2022/04/09 02:32:23;;;;;;;4.68;1.70;;;;;;;13.10;100.00;98743.22;5096242;28;20076;-69
2022/04/09 02:34:56;;;;;;;4.40;1.42;;;;;;;13.09;100.00;98736.19;5095460;28;20036;-70
2022/04/09 02:37:22;;;;;;;5.32;1.40;;;;;;;13.07;100.00;98740.94;5082066;28;20039;-76
2022/04/09 02:39:47;;;;;;;2.80;1.05;;;;;;;13.05;100.00;98739.44;5092789;28;20718;-75
2022/04/09 02:42:13;;;;;;;4.25;1.27;;;;;;;13.00;100.00;98740.00;5078628;28;20034;-75
2022/04/09 02:44:40;;;;;;;4.03;1.50;;;;;;;12.88;100.00;98729.88;5092684;28;20433;-75
2022/04/09 02:47:06;;;;;;;2.38;1.08;;;;;;;12.99;100.00;98753.66;5095411;28;20369;-75
2022/04/09 02:49:32;;;;;;;2.40;1.05;;;;;;;12.92;100.00;98726.63;5092464;28;20051;-75
2022/04/09 02:51:57;;;;;;;2.90;1.20;;;;;;;12.87;100.00;98702.13;5092384;28;20075;-76
2022/04/09 02:54:23;;;;;;;2.08;1.15;;;;;;;12.83;100.00;98679.34;5095263;28;20032;-75
2022/04/09 02:56:48;;;;;;;3.15;1.15;;;;;;;12.95;100.00;98730.81;5092350;28;20031;-69
2022/04/09 02:59:14;;;;;;;2.50;0.93;;;;;;;12.91;100.00;98741.13;5094833;28;20110;-70
2022/04/09 03:01:46;;;;;;;3.53;1.20;;;;;;;12.91;100.00;98748.34;5097528;28;20103;-69
2022/04/09 03:04:13;;;;;;;4.32;1.20;;;;;;;12.77;100.00;98727.69;5098098;28;20024;-75
2022/04/09 03:06:39;;;;;;;4.13;1.23;;;;;;;12.87;100.00;98755.13;5097289;28;20020;-75
2022/04/09 03:09:05;;;;;;;1.00;0.75;;;;;;;12.77;100.00;98735.75;5096543;28;20030;-75
2022/04/09 03:11:30;;;;;;;4.22;1.30;;;;;;;12.78;100.00;98735.56;5095299;28;20065;-75
2022/04/09 03:13:56;;;;;;;4.75;1.23;;;;;;;12.76;100.00;98751.06;5094014;28;20026;-75
2022/04/09 03:16:21;;;;;;;2.60;1.02;;;;;;;12.65;100.00;98727.31;5079590;28;20012;-75
2022/04/09 03:18:48;;;;;;;3.88;0.93;;;;;;;12.68;100.00;98729.66;5092060;28;20043;-75
2022/04/09 03:21:13;;;;;;;2.45;0.95;;;;;;;12.66;100.00;98725.44;5098154;28;20073;-76
2022/04/09 03:23:39;;;;;;;3.33;1.40;;;;;;;12.57;100.00;98702.34;5092824;28;20033;-75
2022/04/09 03:26:05;;;;;;;3.13;1.27;;;;;;;12.67;100.00;98717.19;5091959;28;20036;-75
2022/04/09 03:28:31;;;;;;;2.40;1.00;;;;;;;12.62;100.00;98702.66;5097139;28;20118;-75
2022/04/09 03:30:56;;;;;;;1.58;1.00;;;;;;;12.64;100.00;98711.38;5074884;28;20230;-75
2022/04/09 03:33:22;;;;;;;3.70;1.20;;;;;;;12.67;100.00;98732.53;5081360;28;20050;-75
2022/04/09 03:35:48;;;;;;;4.20;1.05;;;;;;;12.65;100.00;98731.84;5079893;28;20024;-75
2022/04/09 03:38:14;;;;;;;3.35;0.90;;;;;;;12.64;100.00;98722.13;5096653;28;20067;-76
2022/04/09 03:40:40;;;;;;;2.88;1.52;;;;;;;12.62;100.00;98719.63;5099757;28;20040;-76
2022/04/09 03:43:05;;;;;;;6.32;1.42;;;;;;;12.67;100.00;98748.66;5092176;28;20031;-75
2022/04/09 03:45:31;;;;;;;3.38;0.98;;;;;;;12.81;100.00;98780.09;5077880;28;20093;-75
2022/04/09 03:47:56;;;;;;;3.33;1.00;;;;;;;12.80;100.00;98786.50;5083662;28;20063;-75
2022/04/09 03:50:22;;;;;;;3.15;1.30;;;;;;;12.65;100.00;98748.84;5095059;28;20028;-75
2022/04/09 03:52:48;;;;;;;2.45;1.20;;;;;;;12.59;100.00;98709.25;5096190;28;20115;-75
2022/04/09 03:55:14;;;;;;;4.38;1.90;;;;;;;12.47;100.00;98665.00;5099713;28;20020;-76
2022/04/09 03:57:40;;;;;;;2.53;1.23;;;;;;;12.50;100.00;98720.25;5102726;28;20035;-76
2022/04/09 04:00:07;;;;;;;4.55;1.20;;;;;;;12.71;100.00;98744.56;5095753;28;20042;-76
2022/04/09 04:02:32;;;;;;;4.25;1.55;;;;;;;12.61;100.00;98717.94;5096382;28;20031;-75
2022/04/09 04:05:02;;;;;;;4.65;1.40;;;;;;;12.49;100.00;98714.06;5105843;28;20024;-75
2022/04/09 04:07:29;;;;;;;5.00;1.30;;;;;;;12.56;100.00;98757.16;5086094;28;20077;-75
2022/04/09 04:09:55;;;;;;;2.88;1.33;;;;;;;12.43;100.00;98740.84;5097617;28;20028;-70
2022/04/09 04:12:20;;;;;;;3.72;1.60;;;;;;;12.37;100.00;98747.81;5100530;28;20027;-69
2022/04/09 04:14:46;;;;;;;3.63;1.48;;;;;;;12.29;100.00;98755.13;5099112;28;20085;-70
2022/04/09 04:17:12;;;;;;;3.90;1.80;;;;;;;12.31;100.00;98764.66;5100198;28;20522;-70
2022/04/09 04:19:39;;;;;;;4.72;1.90;;;;;;;12.31;100.00;98745.00;5095331;28;20027;-70
2022/04/09 04:22:05;;;;;;;3.80;1.50;;;;;;;12.30;100.00;98757.63;5098116;28;20015;-69
2022/04/09 04:24:31;;;;;;;4.85;1.63;;;;;;;12.27;100.00;98770.59;5086567;28;20032;-70
2022/04/09 04:26:59;;;;;;;5.68;2.88;;;;;;;12.23;100.00;98766.59;5083715;28;20039;-70
2022/04/09 04:29:24;;;;;;;6.40;3.25;;;;;;;12.27;100.00;98774.13;5099391;28;20441;-69
2022/04/09 04:31:50;;;;;;;3.47;2.17;;;;;;;12.31;100.00;98761.97;5102661;28;20027;-69
2022/04/09 04:34:15;;;;;;;3.28;1.50;;;;;;;12.28;100.00;98753.47;5082892;28;20026;-69
2022/04/09 04:36:40;;;;;;;2.17;1.08;;;;;;;12.33;100.00;98775.22;5097835;28;20028;-69
2022/04/09 04:39:06;;;;;;;2.42;1.13;;;;;;;12.35;100.00;98774.03;5094758;28;20042;-69
2022/04/09 04:41:31;;;;;;;1.67;1.27;;;;;;;12.33;100.00;98772.53;5076743;28;20040;-69
2022/04/09 04:43:57;;;;;;;2.88;1.33;;;;;;;12.29;100.00;98760.50;5100219;28;20085;-69
2022/04/09 04:46:22;;;;;;;6.53;2.35;;;;;;;12.32;100.00;98760.13;5097633;28;20024;-69
2022/04/09 04:48:47;;;;;;;4.50;1.58;;;;;;;12.27;100.00;98741.88;5097439;28;20036;-69
2022/04/09 04:51:13;;;;;;;2.10;1.40;;;;;;;12.22;100.00;98720.06;5100325;28;20110;-69
2022/04/09 04:53:39;;;;;;;2.85;0.93;;;;;;;12.33;100.00;98729.53;5097413;28;20032;-69
2022/04/09 04:56:04;;;;;;;1.98;0.90;;;;;;;12.23;100.00;98737.03;5097359;28;20532;-69
2022/04/09 04:58:30;;;;;;;3.65;1.30;;;;;;;12.22;100.00;98740.75;5099796;28;20035;-69
2022/04/09 05:00:55;;;;;;;1.52;1.10;;;;;;;12.28;100.00;98759.66;5087504;28;20031;-69
2022/04/09 05:03:21;;;;;;;2.90;1.33;;;;;;;12.29;100.00;98779.31;5099115;28;20023;-69
2022/04/09 05:05:46;;;;;;;4.55;1.30;;;;;;;12.27;100.00;98789.41;5095156;28;20024;-69
2022/04/09 05:08:12;;;;;;;3.45;1.30;;;;;;;12.22;100.00;98789.94;5098773;28;20035;-70
2022/04/09 05:10:37;;;;;;;2.42;1.00;;;;;;;12.22;100.00;98787.25;5098502;28;20393;-70
2022/04/09 05:13:03;;;;;;;2.83;1.70;;;;;;;12.09;100.00;98767.41;5086170;28;20538;-69
2022/04/09 05:15:28;;;;;;;3.03;1.40;;;;;;;12.20;100.00;98786.63;5081679;28;20027;-69
2022/04/09 05:17:54;;;;;;;2.85;1.55;;;;;;;12.20;100.00;98772.34;5094466;28;20047;-69
2022/04/09 05:20:19;;;;;;;4.28;1.42;;;;;;;12.14;100.00;98763.16;5094145;28;20023;-75
2022/04/09 05:22:46;;;;;;;5.03;1.95;;;;;;;12.21;100.00;98774.00;5085613;28;20119;-75
2022/04/09 05:25:13;;;;;;;3.15;1.42;;;;;;;12.15;100.00;98780.13;5096314;28;20024;-75
2022/04/09 05:27:45;;;;;;;3.50;1.63;;;;;;;12.15;100.00;98791.69;5097295;28;20032;-75
2022/04/09 05:30:11;;;;;;;3.95;2.63;;;;;;;12.14;100.00;98791.88;5095397;28;20056;-75
2022/04/09 05:32:37;;;;;;;4.50;3.28;;;;;;;12.13;100.00;98774.09;5079866;28;20537;-76
2022/04/09 05:35:04;;;;;;;6.30;4.43;;;;;;;12.16;100.00;98776.41;5088814;28;20105;-76
2022/04/09 05:37:31;;;;;;;6.18;5.57;;;;;;;12.14;100.00;98781.97;5107266;28;20046;-76
2022/04/09 05:39:56;;;;;;;6.25;4.97;;;;;;;12.10;100.00;98787.88;5096198;28;20183;-75
2022/04/09 05:42:23;;;;;;;6.65;5.47;;;;;;;12.09;100.00;98797.78;5101493;28;20031;-75
2022/04/09 05:44:50;;;;;;;6.63;4.05;;;;;;;12.13;100.00;98819.78;5083591;28;20107;-75
2022/04/09 05:47:15;;;;;;;4.97;2.75;;;;;;;12.07;100.00;98801.69;5102204;28;20051;-76
2022/04/09 05:49:41;;;;;;;3.70;2.38;;;;;;;12.10;100.00;98798.63;5094528;28;20066;-76
2022/04/09 05:52:06;;;;;;;3.97;2.45;;;;;;;12.07;100.00;98791.78;5084503;28;20483;-74
2022/04/09 05:54:32;;;;;;;1.90;1.40;;;;;;;12.12;100.00;98796.63;5090272;28;20031;-74
2022/04/09 05:56:59;;;;;;;3.22;1.70;;;;;;;12.09;100.00;98778.16;5086115;28;20067;-74
2022/04/09 05:59:26;;;;;;;4.65;2.20;;;;;;;12.08;100.00;98782.69;5096857;28;20491;-74
2022/04/09 06:01:52;;;;;;;3.97;2.00;;;;;;;12.05;100.00;98782.22;5099402;28;20020;-74
2022/04/09 06:04:20;;;;;;;3.97;1.90;;;;;;;12.05;100.00;98784.91;5103529;28;20036;-74
2022/04/09 06:06:46;;;;;;;2.40;1.70;;;;;;;12.08;100.00;98785.38;5102872;28;20517;-74
2022/04/09 06:09:12;;;;;;;3.75;1.80;;;;;;;12.07;100.00;98780.19;5093869;28;20114;-75
2022/04/09 06:11:38;;;;;;;3.30;1.50;;;;;;;12.10;100.00;98767.25;5094596;28;20051;-75
2022/04/09 06:14:06;;;;;;;2.95;1.50;;;;;;;12.15;100.00;98755.94;5101366;28;20031;-75
2022/04/09 06:16:31;;;;;;;2.85;1.40;;;;;;;12.19;100.00;98759.94;5093938;28;20589;-74
2022/04/09 06:18:57;;;;;;;3.25;1.60;;;;;;;12.26;100.00;98760.88;5082163;28;20036;-68
2022/04/09 06:21:22;;;;;;;2.70;1.60;;;;;;;12.28;100.00;98753.47;5093259;28;20035;-69
2022/04/09 06:23:48;;;;;;;4.15;1.60;;;;;;;12.33;100.00;98757.25;5095737;28;20063;-68
2022/04/09 06:26:13;;;;;;;2.83;1.80;;;;;;;12.28;100.00;98738.16;5095895;28;20016;-68
2022/04/09 06:28:39;;;;;;;2.17;1.10;;;;;;;12.40;100.00;98751.97;5082024;28;20039;-68
2022/04/09 06:31:04;;;;;;;2.05;1.30;;;;;;;12.40;100.00;98747.44;5085390;28;20024;-69
2022/04/09 06:33:30;;;;;;;1.67;1.20;;;;;;;12.40;100.00;98736.69;5096136;28;20380;-69
2022/04/09 06:35:55;;;;;;;2.40;1.42;;;;;;;12.40;100.00;98733.16;5096026;28;20020;-69
2022/04/09 06:38:21;;;;;;;3.47;1.50;;;;;;;12.42;100.00;98744.56;5098285;28;20379;-68
2022/04/09 06:40:46;;;;;;;2.25;1.20;;;;;;;12.27;100.00;98719.50;5095728;28;20023;-67
2022/04/09 06:43:12;;;;;;;3.53;1.55;;;;;;;12.34;100.00;98731.19;5098376;28;20024;-67
2022/04/09 06:45:37;;;;;;;4.18;1.90;;;;;;;12.31;100.00;98732.41;5100745;28;20480;-67
2022/04/09 06:48:03;;;;;;;6.95;1.98;;;;;;;12.31;100.00;98726.19;5095714;28;20535;-67
2022/04/09 06:50:29;;;;;;;4.00;2.00;;;;;;;12.28;100.00;98727.41;5095610;28;20476;-68
2022/04/09 06:52:54;;;;;;;4.35;2.00;;;;;;;12.27;100.00;98714.13;5084105;28;20034;-68
2022/04/09 06:55:19;;;;;;;2.35;1.58;;;;;;;12.33;100.00;98718.78;5083734;28;20085;-68
2022/04/09 06:57:45;;;;;;;3.40;1.60;;;;;;;12.23;100.00;98705.63;5095034;28;20065;-67
2022/04/09 07:00:12;;;;;;;2.08;1.05;;;;;;;12.34;100.00;98715.06;5094899;28;20070;-74
2022/04/09 07:02:38;;;;;;;2.72;1.33;;;;;;;12.24;100.00;98695.69;5086992;28;20031;-75
2022/04/09 07:05:05;;;;;;;2.88;1.70;;;;;;;12.34;100.00;98710.53;5093888;28;20484;-75
2022/04/09 07:07:30;;;;;;;3.40;1.42;;;;;;;12.27;100.00;98693.47;5096074;28;20118;-70
2022/04/09 07:10:04;;;;;;;3.38;1.30;;;;;;;12.34;100.00;98715.06;5078669;28;20539;-69
2022/04/09 07:12:30;;;;;;;3.58;1.48;;;;;;;12.35;100.00;98714.06;5090280;28;20542;-75
2022/04/09 07:14:56;;;;;;;2.10;1.20;;;;;;;12.28;100.00;98705.91;5085468;28;20023;-76
2022/04/09 07:17:21;;;;;;;1.83;1.23;;;;;;;12.37;100.00;98720.06;5083282;28;20035;-76
2022/04/09 07:19:47;;;;;;;3.10;1.30;;;;;;;12.38;100.00;98716.38;5082533;28;20613;-75
2022/04/09 07:22:13;;;;;;;2.65;1.40;;;;;;;12.35;100.00;98704.13;5099548;28;20077;-70
2022/04/09 07:24:38;;;;;;;5.00;1.73;;;;;;;12.34;100.00;98707.00;5096349;28;20039;-70
2022/04/09 07:27:04;;;;;;;5.35;2.08;;;;;;;12.32;100.00;98704.50;5077453;28;20103;-69
2022/04/09 07:29:30;;;;;;;5.05;2.33;;;;;;;12.36;100.00;98700.44;5097352;28;20043;-69
2022/04/09 07:31:55;;;;;;;2.55;1.77;;;;;;;12.38;100.00;98713.69;5093169;28;20046;-68
2022/04/09 07:34:21;;;;;;;2.03;1.40;;;;;;;12.34;100.00;98701.63;5099554;28;20023;-68
2022/04/09 07:36:46;;;;;;;2.88;1.52;;;;;;;12.33;100.00;98702.66;5079772;28;20480;-67
2022/04/09 07:39:12;;;;;;;2.90;1.30;;;;;;;12.40;100.00;98712.50;5100186;28;20044;-68
2022/04/09 07:41:38;;;;;;;2.17;0.98;;;;;;;12.34;100.00;98690.88;5080955;28;20035;-68
2022/04/09 07:44:03;;;;;;;1.88;1.38;;;;;;;12.40;100.00;98706.25;5094154;28;20028;-68
2022/04/09 07:46:29;;;;;;;2.17;1.23;;;;;;;12.39;100.00;98693.84;5092423;28;20023;-67
2022/04/09 07:48:54;;;;;;;2.10;1.08;;;;;;;12.39;100.00;98700.06;5083625;28;20062;-68
2022/04/09 07:51:20;;;;;;;3.10;1.30;;;;;;;12.41;100.00;98694.50;5093617;28;20028;-68
2022/04/09 07:53:45;;;;;;;2.03;1.30;;;;;;;12.35;100.00;98697.94;5078872;28;20032;-68
2022/04/09 07:56:11;;;;;;;4.47;1.40;;;;;;;12.42;100.00;98713.16;5095130;28;20020;-67
2022/04/09 07:58:36;;;;;;;1.77;1.00;;;;;;;12.41;100.00;98694.50;5096795;28;20448;-68
2022/04/09 08:01:02;;;;;;;1.52;1.20;;;;;;;12.48;100.00;98684.69;5079101;28;20480;-74
2022/04/09 08:03:27;;;;;;;2.10;1.20;;;;;;;12.45;100.00;98682.38;5093550;28;20031;-74
2022/04/09 08:05:53;;;;;;;2.05;1.13;;;;;;;12.47;100.00;98680.28;5093864;28;20472;-74
2022/04/09 08:08:18;;;;;;;2.28;1.10;;;;;;;12.56;100.00;98698.84;5093161;28;20472;-74
2022/04/09 08:10:44;;;;;;;3.05;0.95;;;;;;;12.57;100.00;98703.19;5101421;28;20049;-67
2022/04/09 08:13:10;;;;;;;2.60;1.20;;;;;;;12.56;100.00;98703.38;5097898;28;20108;-68
2022/04/09 08:15:37;;;;;;;6.60;1.50;;;;;;;12.62;100.00;98681.97;5095478;28;20492;-67
2022/04/09 08:18:04;;;;;;;2.90;1.48;;;;;;;12.67;100.00;98700.25;5096618;28;20021;-68
2022/04/09 08:20:30;;;;;;;2.35;1.50;;;;;;;12.63;100.00;98698.94;5094151;28;20060;-68
2022/04/09 08:22:55;;;;;;;2.45;1.45;;;;;;;12.71;100.00;98688.91;5078792;28;20067;-68
2022/04/09 08:25:21;;;;;;;2.22;1.63;;;;;;;12.76;100.00;98661.44;5091943;28;20476;-68
2022/04/09 08:27:49;;;;;;;2.35;1.10;;;;;;;12.79;100.00;98666.44;5080692;28;20019;-67
2022/04/09 08:30:15;;;;;;;2.97;1.70;;;;;;;12.87;100.00;98680.63;5079977;28;20083;-67
2022/04/09 08:32:41;;;;;;;1.95;1.33;;;;;;;12.94;100.00;98695.00;5096905;28;20510;-68
2022/04/09 08:35:06;;;;;;;3.72;1.77;;;;;;;13.08;100.00;98704.91;5094269;28;20050;-68
2022/04/09 08:37:32;;;;;;;2.80;1.20;;;;;;;13.36;100.00;98731.94;5096554;28;20047;-68
2022/04/09 08:39:58;;;;;;;2.40;1.10;;;;;;;13.28;100.00;98691.66;5081483;28;20389;-68
2022/04/09 08:42:24;;;;;;;1.10;0.77;;;;;;;13.25;100.00;98684.81;5101853;28;20020;-68
2022/04/09 08:44:50;;;;;;;1.60;0.60;;;;;;;13.38;94.86;98781.88;5097992;28;20032;-68
2022/04/09 08:47:16;;;;;;;2.10;0.80;;;;;;;13.42;95.07;98857.75;5083901;28;20096;-69
2022/04/09 08:49:47;;;;;;;2.40;1.00;;;;;;;13.42;86.92;98880.13;5072128;28;20101;-70
2022/04/09 08:52:13;;;;;;;2.30;0.90;;;;;;;13.03;90.98;98876.06;5094971;28;20020;-69
2022/04/09 08:54:40;;;;;;;2.22;1.02;;;;;;;12.89;92.67;98887.59;5087723;28;20506;-69
2022/04/09 08:57:07;;;;;;;1.80;0.60;;;;;;;12.60;93.58;98882.19;5094827;28;20131;-69
2022/04/09 08:59:32;;;;;;;0.95;0.40;;;;;;;12.36;94.36;98867.13;5098169;28;20040;-69
2022/04/09 09:01:58;;;;;;;1.83;0.60;;;;;;;12.28;95.64;98886.00;5082743;28;20109;-69
2022/04/09 09:04:24;;;;;;;3.08;0.60;;;;;;;12.20;96.06;98906.72;5096795;28;20046;-69
2022/04/09 09:06:49;;;;;;;2.85;0.60;;;;;;;12.20;95.99;98901.34;5097165;28;20032;-69
2022/04/09 09:09:29;;;;;;;1.90;0.55;;;;;;;12.06;97.01;98896.75;5094283;28;20022;-69
2022/04/09 09:11:56;;;;;;;1.77;0.50;;;;;;;12.01;97.43;98923.31;5096961;28;20111;-68
2022/04/09 09:14:30;;;;;;;3.33;2.03;;;;;;;11.98;97.35;98926.34;5096687;28;20035;-69
2022/04/09 09:17:00;;;;;;;1.83;1.20;;;;;;;11.88;99.43;98925.75;5080764;28;20047;-69
2022/04/09 09:19:48;;;;;;;2.45;1.27;;;;;;;11.69;100.00;98916.28;5097191;28;20483;-69
2022/04/09 09:22:18;;;;;;;1.77;0.90;;;;;;;11.70;100.00;98919.81;5099597;28;20020;-69
2022/04/09 09:25:02;;;;;;;2.97;1.33;;;;;;;11.46;100.00;98921.56;5096715;28;20019;-69
2022/04/09 09:27:27;;;;;;;2.97;1.48;;;;;;;11.37;100.00;98911.88;5096360;28;20031;-69
2022/04/09 09:29:53;;;;;;;7.88;0.80;;;;;;;11.31;100.00;98914.41;5097299;28;20498;-70
2022/04/09 09:32:25;;;;;;;0.60;0.60;;;;;;;11.33;100.00;98913.25;5087724;28;20476;-69
2022/04/09 09:34:59;;;;;;;2.50;0.90;;;;;;;11.41;100.00;98920.41;5096940;28;20049;-70
2022/04/09 09:37:28;;;;;;;1.10;0.60;;;;;;;11.51;100.00;98929.94;5080741;28;20031;-69
2022/04/09 09:39:54;;;;;;;1.85;0.73;;;;;;;11.60;100.00;98908.44;5088864;28;20048;-69
2022/04/09 09:42:21;;;;;;;1.17;0.40;;;;;;;11.79;100.00;98922.28;5097104;28;20028;-69
2022/04/09 09:44:47;;;;;;;1.13;0.50;;;;;;;11.71;100.00;98921.47;5096830;28;20389;-69
2022/04/09 09:47:14;;;;;;;2.22;0.70;;;;;;;11.77;100.00;98929.66;5096592;28;20035;-69
2022/04/09 09:49:56;;;;;;;1.55;0.73;;;;;;;11.81;100.00;98932.84;5096997;28;20038;-69
2022/04/09 09:52:30;;;;;;;1.35;0.60;;;;;;;11.72;100.00;98934.72;5089511;28;20024;-69
2022/04/09 09:54:55;;;;;;;;;;;;;;;11.63;100.00;98937.63;5079559;28;20024;-68
2022/04/09 09:57:22;;;;;;;2.35;1.00;;;;;;;11.61;100.00;98942.31;5094644;28;19978;-68
2022/04/09 09:59:53;;;;;;;2.22;1.17;;;;;;;11.71;100.00;98929.53;5099174;28;20046;-67
2022/04/09 10:02:23;;;;;;;1.88;0.57;;;;;;;11.70;100.00;98931.38;5092382;28;20034;-69
2022/04/09 10:04:50;;;;;;;0.63;0.55;;;;;;;11.70;100.00;98917.13;5094160;28;20045;-67
2022/04/09 10:07:16;;;;;;;0.75;0.40;;;;;;;11.75;100.00;98926.31;5086308;28;20028;-67
2022/04/09 10:09:42;;;;;;;1.48;0.52;;;;;;;11.67;100.00;98930.91;5100442;28;20106;-68
2022/04/09 10:12:20;;;;;;;1.05;0.60;;;;;;;11.70;100.00;98943.97;5096978;28;20709;-68
2022/04/09 10:15:06;;;;;;;2.28;0.70;;;;;;;11.57;100.00;98931.91;5088409;28;20035;-70
2022/04/09 10:17:33;;;;;;;1.42;0.60;;;;;;;11.61;100.00;98934.25;5086618;28;20032;-68
2022/04/09 10:20:02;;;;;;;3.53;1.40;;;;;;;11.50;100.00;98941.69;5094046;28;20039;-68
2022/04/09 10:22:48;;;;;;;9.68;4.00;;;;;;;11.57;100.00;98957.91;5096224;28;20088;-68
2022/04/09 10:25:15;;;;;;;2.00;1.10;;;;;;;11.76;100.00;98962.06;5098414;28;20492;-73
2022/04/09 10:27:44;;;;;;;5.18;1.60;;;;;;;11.79;100.00;98957.19;5093466;28;20396;-68
2022/04/09 10:30:16;;;;;;;3.88;1.60;;;;;;;11.72;100.00;98964.28;5100288;28;20024;-73
2022/04/09 10:32:43;;;;;;;2.17;1.23;;;;;;;11.55;100.00;98981.44;5098346;28;20028;-73
2022/04/09 10:35:38;;;;;;;3.28;1.30;;;;;;;11.65;100.00;98981.25;5075097;28;20607;-73
2022/04/09 10:38:07;;;;;;;2.00;0.95;;;;;;;11.63;100.00;98977.91;5100015;28;20107;-76
2022/04/09 10:40:38;;;;;;;2.35;1.00;;;;;;;11.64;100.00;98971.53;5081727;28;20047;-73
2022/04/09 10:43:05;;;;;;;1.00;0.80;;;;;;;11.70;100.00;98974.34;5097959;28;20023;-69
2022/04/09 10:46:02;;;;;;;1.63;0.82;;;;;;;11.77;100.00;98983.38;5083268;28;20028;-69
2022/04/09 10:48:29;;;;;;;3.58;0.80;;;;;;;11.73;100.00;98990.09;5094386;28;20480;-69
2022/04/09 10:51:04;;;;;;;1.50;0.88;;;;;;;11.73;100.00;99008.91;5096617;28;20071;-69
2022/04/09 10:53:35;;;;;;;2.08;0.93;;;;;;;12.02;99.06;99016.38;5087358;28;20039;-69
2022/04/09 10:56:27;;;;;;;1.85;1.27;;;;;;;11.93;98.03;99017.41;5095285;28;20472;-70
2022/04/09 10:59:29;;;;;;;2.38;1.35;;;;;;;11.68;97.62;99023.88;5096640;28;20028;-69
2022/04/09 11:01:56;;;;;;;1.75;1.45;;;;;;;11.58;97.82;99018.69;5095287;28;20046;-69
2022/04/09 11:04:36;;;;;;;2.30;1.65;;;;;;;11.42;95.81;99061.69;5097465;28;20020;-68
2022/04/09 11:07:16;;;;;;;3.10;1.40;;;;;;;11.31;96.63;99056.66;5092801;28;20510;-67
2022/04/09 11:09:54;;;;;;;1.67;1.55;;;;;;;11.19;98.40;99072.25;5084081;28;20114;-69
2022/04/09 11:12:39;;;;;;;2.35;1.60;;;;;;;11.04;98.33;99068.59;5095438;28;20031;-69
2022/04/09 11:15:17;;;;;;;1.55;1.45;;;;;;;10.91;96.55;99073.63;5095200;28;20023;-69
2022/04/09 11:17:47;;;;;;;1.60;1.50;;;;;;;10.83;95.34;99087.00;5098183;28;20099;-68
2022/04/09 11:20:22;;;;;;;1.50;1.40;;;;;;;10.76;95.21;99093.19;5095145;28;20028;-68
2022/04/09 11:22:51;;;;;;;2.80;2.28;;;;;;;10.71;95.17;99084.84;5095521;28;20080;-68
2022/04/09 11:25:22;;;;;;;5.28;1.80;;;;;;;10.81;94.20;99091.69;5095258;28;20080;-69
2022/04/09 11:27:49;;;;;;;2.10;1.90;;;;;;;10.69;94.15;99098.41;5095094;28;20028;-70